MAPA DE AEROPUERTO

INFORMACIÓN METAR y TAF


Deprecated: The each() function is deprecated. This message will be suppressed on further calls in /home/customer/www/clickair-va.com/public_html/VAM/vam/helpers/get_metar.php on line 20
METAR FOR LEAS
ADDS - METARS form results

(0437 UTC 28 January 2023)
Data provider http://aviationweather.gov/metar/data/
 
METAR text: LEAS 280430Z AUTO VRB02KT 9999 0500W -RA BCFG BKN028 BKN037 BKN046 05/04 Q1027
Conditions at: LEAS (ASTURIAS/AVILES , ES) observed 0430 UTC 28 January 2023
Temperature: 5.0°C (41°F)
Dewpoint: 4.0°C (39°F) [RH = 93%]
Pressure (altimeter): 30.32 inches Hg (1027.0 mb)
Winds: variable direction winds at 2 MPH (2 knots; 1.0 m/s)
Visibility: 6 or more miles (10+ km)
Ceiling: 2800 feet AGL
Clouds: broken clouds at 2800 feet AGL
broken clouds at 3700 feet AGL
broken clouds at 4600 feet AGL
Weather: BCFG -RA  (patches of fog, light rain)

METAR text: LEAS 280400Z AUTO 23004KT 9999 SCT034 BKN043 OVC060 05/04 Q1027
Conditions at: LEAS (ASTURIAS/AVILES , ES) observed 0400 UTC 28 January 2023
Temperature: 5.0°C (41°F)
Dewpoint: 4.0°C (39°F) [RH = 93%]
Pressure (altimeter): 30.32 inches Hg (1027.0 mb)
Winds: from the SW (230 degrees) at 5 MPH (4 knots; 2.1 m/s)
Visibility: 6 or more miles (10+ km)
Ceiling: 4300 feet AGL
Clouds: scattered clouds at 3400 feet AGL
broken clouds at 4300 feet AGL
overcast cloud deck at 6000 feet AGL
Weather: no significant weather observed at this time

Forecast for: LEAS (ASTURIAS/AVILES , ES)
Text: TAF LEAS 280200Z 2803/2903 05009KT 9999 SCT020 BKN030 TX09/2813Z TN04/2806Z
Forecast period: 0300 UTC 28 January 2023 to 0300 UTC 29 January 2023
Forecast type: FROM: standard forecast or significant change
Winds: from the NE (50 degrees) at 10 MPH (9 knots; 4.6 m/s)
Visibility: 6 or more miles (10+ km)
Ceiling: 3000 feet AGL
Clouds: scattered clouds at 2000 feet AGL
broken clouds at 3000 feet AGL
Weather: no significant weather forecast for this period
Text: PROB40
Forecast period: 0300 to 2000 UTC 28 January 2023
Forecast type: TEMPORARY: The following changes expected for less than half the time period
Winds: from the ENE (70 degrees) at 17 MPH (15 knots; 7.7 m/s)
gusting to 29 MPH (25 knots; 12.9 m/s)
Visibility: missing
Ceiling: unknown
Clouds: missing
Weather: no significant weather forecast for this period
Text: TEMPO 2803/2820 07015G25KT
Forecast period: 0300 to 1200 UTC 28 January 2023
Forecast type: TEMPORARY: The following changes expected for less than half the time period
Visibility: 1.86 miles (2.99 km)
Ceiling: 1000 feet AGL
Clouds: broken clouds at 1000 feet AGL
Weather: RA BR  (moderate rain, mist)